sensor_id;sensor_type;location;lat;lon;timestamp;temperature;humidity
17565;DHT22;62994;52.126;5.596;2023-05-10T00:00:01;15.80;99.90
17565;DHT22;62994;52.126;5.596;2023-05-10T00:02:31;15.80;99.90
17565;DHT22;62994;52.126;5.596;2023-05-10T00:04:58;15.90;99.90
17565;DHT22;62994;52.126;5.596;2023-05-10T00:07:27;15.90;99.90
17565;DHT22;62994;52.126;5.596;2023-05-10T00:09:54;15.90;99.90
17565;DHT22;62994;52.126;5.596;2023-05-10T00:12:26;15.90;99.90
17565;DHT22;62994;52.126;5.596;2023-05-10T00:14:55;15.90;99.90
17565;DHT22;62994;52.126;5.596;2023-05-10T00:17:27;15.90;99.90
17565;DHT22;62994;52.126;5.596;2023-05-10T00:19:55;15.80;99.90
17565;DHT22;62994;52.126;5.596;2023-05-10T00:22:22;15.80;99.90
17565;DHT22;62994;52.126;5.596;2023-05-10T00:24:49;15.80;99.90
17565;DHT22;62994;52.126;5.596;2023-05-10T00:27:18;15.80;99.90
17565;DHT22;62994;52.126;5.596;2023-05-10T00:29:46;15.80;99.90
17565;DHT22;62994;52.126;5.596;2023-05-10T00:32:13;15.80;99.90
17565;DHT22;62994;52.126;5.596;2023-05-10T00:34:45;15.70;99.90
17565;DHT22;62994;52.126;5.596;2023-05-10T00:37:17;15.70;99.90
17565;DHT22;62994;52.126;5.596;2023-05-10T00:39:45;15.70;99.90
17565;DHT22;62994;52.126;5.596;2023-05-10T00:42:14;15.70;99.90
17565;DHT22;62994;52.126;5.596;2023-05-10T00:44:41;15.70;99.90
17565;DHT22;62994;52.126;5.596;2023-05-10T00:47:10;15.70;99.90
17565;DHT22;62994;52.126;5.596;2023-05-10T00:49:39;15.60;99.90
17565;DHT22;62994;52.126;5.596;2023-05-10T00:52:09;15.70;99.90
17565;DHT22;62994;52.126;5.596;2023-05-10T00:54:37;15.60;99.90
17565;DHT22;62994;52.126;5.596;2023-05-10T00:57:05;15.60;99.90
17565;DHT22;62994;52.126;5.596;2023-05-10T00:59:32;15.60;99.90
17565;DHT22;62994;52.126;5.596;2023-05-10T01:02:01;15.60;99.90
17565;DHT22;62994;52.126;5.596;2023-05-10T01:04:28;15.60;99.90
17565;DHT22;62994;52.126;5.596;2023-05-10T01:06:56;15.60;99.90
17565;DHT22;62994;52.126;5.596;2023-05-10T01:09:23;15.60;99.90
17565;DHT22;62994;52.126;5.596;2023-05-10T01:11:53;15.60;99.90
17565;DHT22;62994;52.126;5.596;2023-05-10T01:14:20;15.50;99.90
17565;DHT22;62994;52.126;5.596;2023-05-10T01:16:49;15.50;99.90
17565;DHT22;62994;52.126;5.596;2023-05-10T01:19:19;15.50;99.90
17565;DHT22;62994;52.126;5.596;2023-05-10T01:21:53;15.50;99.90
17565;DHT22;62994;52.126;5.596;2023-05-10T01:24:53;15.40;99.90
17565;DHT22;62994;52.126;5.596;2023-05-10T01:27:46;15.40;99.90
17565;DHT22;62994;52.126;5.596;2023-05-10T01:33:24;15.60;99.90
17565;DHT22;62994;52.126;5.596;2023-05-10T01:35:58;15.50;99.90
17565;DHT22;62994;52.126;5.596;2023-05-10T01:38:36;15.50;99.90
17565;DHT22;62994;52.126;5.596;2023-05-10T01:41:13;15.40;99.90
17565;DHT22;62994;52.126;5.596;2023-05-10T01:43:48;15.40;99.90
17565;DHT22;62994;52.126;5.596;2023-05-10T01:46:21;15.40;99.90
17565;DHT22;62994;52.126;5.596;2023-05-10T01:48:55;15.40;99.90
17565;DHT22;62994;52.126;5.596;2023-05-10T01:51:25;15.40;99.90
17565;DHT22;62994;52.126;5.596;2023-05-10T01:53:58;15.30;99.90
17565;DHT22;62994;52.126;5.596;2023-05-10T01:56:29;15.30;99.90
17565;DHT22;62994;52.126;5.596;2023-05-10T01:59:07;15.30;99.90
17565;DHT22;62994;52.126;5.596;2023-05-10T02:01:37;15.30;99.90
17565;DHT22;62994;52.126;5.596;2023-05-10T02:04:06;15.20;99.90
17565;DHT22;62994;52.126;5.596;2023-05-10T02:06:38;15.30;99.90
17565;DHT22;62994;52.126;5.596;2023-05-10T02:09:11;15.20;99.90
17565;DHT22;62994;52.126;5.596;2023-05-10T02:11:41;15.20;99.90
17565;DHT22;62994;52.126;5.596;2023-05-10T02:14:10;15.20;99.90
17565;DHT22;62994;52.126;5.596;2023-05-10T02:16:38;15.20;99.90
17565;DHT22;62994;52.126;5.596;2023-05-10T02:19:09;15.20;99.90
17565;DHT22;62994;52.126;5.596;2023-05-10T02:21:38;15.20;99.90
17565;DHT22;62994;52.126;5.596;2023-05-10T02:24:06;15.20;99.90
17565;DHT22;62994;52.126;5.596;2023-05-10T02:26:35;15.20;99.90
17565;DHT22;62994;52.126;5.596;2023-05-10T02:29:03;15.20;99.90
17565;DHT22;62994;52.126;5.596;2023-05-10T02:31:35;15.20;99.90
17565;DHT22;62994;52.126;5.596;2023-05-10T02:34:04;15.30;99.90
17565;DHT22;62994;52.126;5.596;2023-05-10T02:36:35;15.20;99.90
17565;DHT22;62994;52.126;5.596;2023-05-10T02:39:02;15.20;99.90
17565;DHT22;62994;52.126;5.596;2023-05-10T02:41:31;15.20;99.90
17565;DHT22;62994;52.126;5.596;2023-05-10T02:44:01;15.20;99.90
17565;DHT22;62994;52.126;5.596;2023-05-10T02:46:34;15.30;99.90
17565;DHT22;62994;52.126;5.596;2023-05-10T02:51:50;15.20;99.90
17565;DHT22;62994;52.126;5.596;2023-05-10T02:54:30;15.30;99.90
17565;DHT22;62994;52.126;5.596;2023-05-10T02:57:07;15.40;99.90
17565;DHT22;62994;52.126;5.596;2023-05-10T03:00:00;15.40;99.90
17565;DHT22;62994;52.126;5.596;2023-05-10T03:02:44;15.40;99.90
17565;DHT22;62994;52.126;5.596;2023-05-10T03:05:24;15.30;99.90
17565;DHT22;62994;52.126;5.596;2023-05-10T03:07:54;15.30;99.90
17565;DHT22;62994;52.126;5.596;2023-05-10T03:10:26;15.20;99.90
17565;DHT22;62994;52.126;5.596;2023-05-10T03:13:20;15.30;99.90
17565;DHT22;62994;52.126;5.596;2023-05-10T03:16:08;15.20;99.90
17565;DHT22;62994;52.126;5.596;2023-05-10T03:20:26;15.20;99.90
17565;DHT22;62994;52.126;5.596;2023-05-10T03:21:47;15.10;99.90
17565;DHT22;62994;52.126;5.596;2023-05-10T03:24:42;15.10;99.90
17565;DHT22;62994;52.126;5.596;2023-05-10T03:27:16;15.10;99.90
17565;DHT22;62994;52.126;5.596;2023-05-10T03:29:49;15.00;99.90
17565;DHT22;62994;52.126;5.596;2023-05-10T03:32:27;15.00;99.90
17565;DHT22;62994;52.126;5.596;2023-05-10T03:35:13;15.00;99.90
17565;DHT22;62994;52.126;5.596;2023-05-10T03:37:45;15.00;99.90
17565;DHT22;62994;52.126;5.596;2023-05-10T03:40:19;14.90;99.90
17565;DHT22;62994;52.126;5.596;2023-05-10T03:43:08;14.90;99.90
17565;DHT22;62994;52.126;5.596;2023-05-10T03:45:44;14.90;99.90
17565;DHT22;62994;52.126;5.596;2023-05-10T03:48:18;14.90;99.90
17565;DHT22;62994;52.126;5.596;2023-05-10T03:50:58;14.80;99.90
17565;DHT22;62994;52.126;5.596;2023-05-10T03:53:32;14.90;99.90
17565;DHT22;62994;52.126;5.596;2023-05-10T03:56:07;14.80;99.90
17565;DHT22;62994;52.126;5.596;2023-05-10T03:58:43;14.80;99.90
17565;DHT22;62994;52.126;5.596;2023-05-10T04:01:19;14.80;99.90
17565;DHT22;62994;52.126;5.596;2023-05-10T04:03:49;14.80;99.90
17565;DHT22;62994;52.126;5.596;2023-05-10T04:06:22;14.70;99.90
17565;DHT22;62994;52.126;5.596;2023-05-10T04:08:54;14.70;99.90
17565;DHT22;62994;52.126;5.596;2023-05-10T04:11:33;14.70;99.90
17565;DHT22;62994;52.126;5.596;2023-05-10T04:14:08;14.70;99.90
17565;DHT22;62994;52.126;5.596;2023-05-10T04:16:49;14.70;99.90
17565;DHT22;62994;52.126;5.596;2023-05-10T04:19:18;14.80;99.90
17565;DHT22;62994;52.126;5.596;2023-05-10T04:21:47;14.90;99.90
17565;DHT22;62994;52.126;5.596;2023-05-10T04:24:20;14.90;99.90
17565;DHT22;62994;52.126;5.596;2023-05-10T04:27:08;14.90;99.90
17565;DHT22;62994;52.126;5.596;2023-05-10T04:29:48;14.90;99.90
17565;DHT22;62994;52.126;5.596;2023-05-10T04:32:17;14.80;99.90
17565;DHT22;62994;52.126;5.596;2023-05-10T04:34:54;14.80;99.90
17565;DHT22;62994;52.126;5.596;2023-05-10T04:37:24;14.80;99.90
17565;DHT22;62994;52.126;5.596;2023-05-10T04:39:56;14.80;99.90
17565;DHT22;62994;52.126;5.596;2023-05-10T04:42:33;14.70;99.90
17565;DHT22;62994;52.126;5.596;2023-05-10T04:45:09;14.80;99.90
17565;DHT22;62994;52.126;5.596;2023-05-10T04:47:39;14.80;99.90
17565;DHT22;62994;52.126;5.596;2023-05-10T04:50:24;14.80;99.90
17565;DHT22;62994;52.126;5.596;2023-05-10T04:52:56;14.80;99.90
17565;DHT22;62994;52.126;5.596;2023-05-10T04:55:25;14.80;99.90
17565;DHT22;62994;52.126;5.596;2023-05-10T04:58:12;14.80;99.90
17565;DHT22;62994;52.126;5.596;2023-05-10T05:00:44;14.90;99.90
17565;DHT22;62994;52.126;5.596;2023-05-10T05:03:27;14.90;99.90
17565;DHT22;62994;52.126;5.596;2023-05-10T05:06:04;14.90;99.90
17565;DHT22;62994;52.126;5.596;2023-05-10T05:08:39;14.80;99.90
17565;DHT22;62994;52.126;5.596;2023-05-10T05:11:08;14.80;99.90
17565;DHT22;62994;52.126;5.596;2023-05-10T05:13:40;14.80;99.90
17565;DHT22;62994;52.126;5.596;2023-05-10T05:16:07;14.80;99.90
17565;DHT22;62994;52.126;5.596;2023-05-10T05:18:47;14.70;99.90
17565;DHT22;62994;52.126;5.596;2023-05-10T05:21:21;14.70;99.90
17565;DHT22;62994;52.126;5.596;2023-05-10T05:23:58;14.70;99.90
17565;DHT22;62994;52.126;5.596;2023-05-10T05:26:52;14.70;99.90
17565;DHT22;62994;52.126;5.596;2023-05-10T05:29:24;14.70;99.90
17565;DHT22;62994;52.126;5.596;2023-05-10T05:31:59;14.70;99.90
17565;DHT22;62994;52.126;5.596;2023-05-10T05:34:40;14.70;99.90
17565;DHT22;62994;52.126;5.596;2023-05-10T05:37:19;14.70;99.90
17565;DHT22;62994;52.126;5.596;2023-05-10T05:39:47;14.70;99.90
17565;DHT22;62994;52.126;5.596;2023-05-10T05:42:22;14.80;99.90
17565;DHT22;62994;52.126;5.596;2023-05-10T05:44:56;14.80;99.90
17565;DHT22;62994;52.126;5.596;2023-05-10T05:47:33;14.80;99.90
17565;DHT22;62994;52.126;5.596;2023-05-10T05:50:02;14.80;99.90
17565;DHT22;62994;52.126;5.596;2023-05-10T05:52:38;14.80;99.90
17565;DHT22;62994;52.126;5.596;2023-05-10T05:55:13;14.80;99.90
17565;DHT22;62994;52.126;5.596;2023-05-10T05:57:59;14.80;99.90
17565;DHT22;62994;52.126;5.596;2023-05-10T06:00:39;14.80;99.90
17565;DHT22;62994;52.126;5.596;2023-05-10T06:03:13;14.80;99.90
17565;DHT22;62994;52.126;5.596;2023-05-10T06:05:48;14.80;99.90
17565;DHT22;62994;52.126;5.596;2023-05-10T06:08:15;14.80;99.90
17565;DHT22;62994;52.126;5.596;2023-05-10T06:10:43;14.80;99.90
17565;DHT22;62994;52.126;5.596;2023-05-10T06:13:12;14.80;99.90
17565;DHT22;62994;52.126;5.596;2023-05-10T06:15:57;14.80;99.90
17565;DHT22;62994;52.126;5.596;2023-05-10T06:18:30;14.90;99.90
17565;DHT22;62994;52.126;5.596;2023-05-10T06:21:11;14.90;99.90
17565;DHT22;62994;52.126;5.596;2023-05-10T06:23:43;14.90;99.90
17565;DHT22;62994;52.126;5.596;2023-05-10T06:26:14;14.90;99.90
17565;DHT22;62994;52.126;5.596;2023-05-10T06:28:56;14.80;99.90
17565;DHT22;62994;52.126;5.596;2023-05-10T06:32:01;14.90;99.90
17565;DHT22;62994;52.126;5.596;2023-05-10T06:34:32;14.80;99.90
17565;DHT22;62994;52.126;5.596;2023-05-10T06:37:11;14.90;99.90
17565;DHT22;62994;52.126;5.596;2023-05-10T06:39:49;14.80;99.90
17565;DHT22;62994;52.126;5.596;2023-05-10T06:42:16;14.80;99.90
17565;DHT22;62994;52.126;5.596;2023-05-10T06:44:54;14.80;99.90
17565;DHT22;62994;52.126;5.596;2023-05-10T06:47:26;14.80;99.90
17565;DHT22;62994;52.126;5.596;2023-05-10T06:49:54;14.80;99.90
17565;DHT22;62994;52.126;5.596;2023-05-10T06:52:26;14.80;99.90
17565;DHT22;62994;52.126;5.596;2023-05-10T06:54:56;14.80;99.90
17565;DHT22;62994;52.126;5.596;2023-05-10T06:57:42;14.80;99.90
17565;DHT22;62994;52.126;5.596;2023-05-10T07:00:19;14.90;99.90
17565;DHT22;62994;52.126;5.596;2023-05-10T07:02:52;14.90;99.90
17565;DHT22;62994;52.126;5.596;2023-05-10T07:05:27;14.90;99.90
17565;DHT22;62994;52.126;5.596;2023-05-10T07:07:58;15.00;99.90
17565;DHT22;62994;52.126;5.596;2023-05-10T07:10:32;14.90;99.90
17565;DHT22;62994;52.126;5.596;2023-05-10T07:13:12;15.00;99.90
17565;DHT22;62994;52.126;5.596;2023-05-10T07:15:53;15.00;99.90
17565;DHT22;62994;52.126;5.596;2023-05-10T07:18:24;14.90;99.90
17565;DHT22;62994;52.126;5.596;2023-05-10T07:20:59;14.90;99.90
17565;DHT22;62994;52.126;5.596;2023-05-10T07:23:33;15.00;99.90
17565;DHT22;62994;52.126;5.596;2023-05-10T07:26:15;15.00;99.90
17565;DHT22;62994;52.126;5.596;2023-05-10T07:28:48;15.00;99.90
17565;DHT22;62994;52.126;5.596;2023-05-10T07:31:30;15.10;99.90
17565;DHT22;62994;52.126;5.596;2023-05-10T07:34:28;15.10;99.90
17565;DHT22;62994;52.126;5.596;2023-05-10T07:36:59;15.10;99.90
17565;DHT22;62994;52.126;5.596;2023-05-10T07:39:37;15.10;99.90
17565;DHT22;62994;52.126;5.596;2023-05-10T07:42:12;15.20;99.90
17565;DHT22;62994;52.126;5.596;2023-05-10T07:44:43;15.20;99.90
17565;DHT22;62994;52.126;5.596;2023-05-10T07:47:19;15.20;99.90
17565;DHT22;62994;52.126;5.596;2023-05-10T07:49:53;15.30;99.90
17565;DHT22;62994;52.126;5.596;2023-05-10T07:52:25;15.30;99.90
17565;DHT22;62994;52.126;5.596;2023-05-10T07:55:02;15.40;99.90
17565;DHT22;62994;52.126;5.596;2023-05-10T07:57:45;15.50;99.90
17565;DHT22;62994;52.126;5.596;2023-05-10T08:00:40;15.50;99.90
17565;DHT22;62994;52.126;5.596;2023-05-10T08:03:41;15.50;99.90
17565;DHT22;62994;52.126;5.596;2023-05-10T08:09:27;15.60;99.90
17565;DHT22;62994;52.126;5.596;2023-05-10T08:12:00;15.60;99.90
17565;DHT22;62994;52.126;5.596;2023-05-10T08:14:44;15.60;99.90
17565;DHT22;62994;52.126;5.596;2023-05-10T08:17:32;15.60;99.90
17565;DHT22;62994;52.126;5.596;2023-05-10T08:20:07;15.60;99.90
17565;DHT22;62994;52.126;5.596;2023-05-10T08:22:48;15.50;99.90
17565;DHT22;62994;52.126;5.596;2023-05-10T08:25:21;15.50;99.90
17565;DHT22;62994;52.126;5.596;2023-05-10T08:27:49;15.60;99.90
17565;DHT22;62994;52.126;5.596;2023-05-10T08:30:23;15.60;99.90
17565;DHT22;62994;52.126;5.596;2023-05-10T08:32:54;15.60;99.90
17565;DHT22;62994;52.126;5.596;2023-05-10T08:35:24;15.60;99.90
17565;DHT22;62994;52.126;5.596;2023-05-10T08:38:09;15.60;99.90
17565;DHT22;62994;52.126;5.596;2023-05-10T08:40:56;15.70;99.90
17565;DHT22;62994;52.126;5.596;2023-05-10T08:43:28;15.70;99.90
17565;DHT22;62994;52.126;5.596;2023-05-10T08:46:19;15.70;99.90
17565;DHT22;62994;52.126;5.596;2023-05-10T08:49:02;15.80;99.90
17565;DHT22;62994;52.126;5.596;2023-05-10T08:51:46;15.80;99.90
17565;DHT22;62994;52.126;5.596;2023-05-10T08:54:21;15.80;99.90
17565;DHT22;62994;52.126;5.596;2023-05-10T08:57:18;15.90;99.90
17565;DHT22;62994;52.126;5.596;2023-05-10T08:59:51;16.00;99.90
17565;DHT22;62994;52.126;5.596;2023-05-10T09:02:26;16.00;99.90
17565;DHT22;62994;52.126;5.596;2023-05-10T09:04:54;16.00;99.90
17565;DHT22;62994;52.126;5.596;2023-05-10T09:07:25;16.00;99.90
17565;DHT22;62994;52.126;5.596;2023-05-10T09:09:59;16.00;99.90
17565;DHT22;62994;52.126;5.596;2023-05-10T09:12:33;16.00;99.90
17565;DHT22;62994;52.126;5.596;2023-05-10T09:15:07;16.10;99.90
17565;DHT22;62994;52.126;5.596;2023-05-10T09:17:39;16.10;99.90
17565;DHT22;62994;52.126;5.596;2023-05-10T09:20:10;16.10;99.90
17565;DHT22;62994;52.126;5.596;2023-05-10T09:22:48;16.20;99.90
17565;DHT22;62994;52.126;5.596;2023-05-10T09:25:20;16.10;99.90
17565;DHT22;62994;52.126;5.596;2023-05-10T09:27:56;16.10;99.90
17565;DHT22;62994;52.126;5.596;2023-05-10T09:33:20;16.10;99.90
17565;DHT22;62994;52.126;5.596;2023-05-10T09:35:54;16.00;99.90
17565;DHT22;62994;52.126;5.596;2023-05-10T09:38:22;16.00;99.90
17565;DHT22;62994;52.126;5.596;2023-05-10T09:40:52;16.00;99.90
17565;DHT22;62994;52.126;5.596;2023-05-10T09:43:26;16.10;99.90
17565;DHT22;62994;52.126;5.596;2023-05-10T09:45:56;16.10;99.90
17565;DHT22;62994;52.126;5.596;2023-05-10T09:48:24;16.20;99.90
17565;DHT22;62994;52.126;5.596;2023-05-10T09:51:02;16.30;99.90
17565;DHT22;62994;52.126;5.596;2023-05-10T09:53:38;16.40;99.90
17565;DHT22;62994;52.126;5.596;2023-05-10T09:56:11;16.50;99.90
17565;DHT22;62994;52.126;5.596;2023-05-10T09:58:43;16.50;99.90
17565;DHT22;62994;52.126;5.596;2023-05-10T10:01:13;16.60;99.90
17565;DHT22;62994;52.126;5.596;2023-05-10T10:03:48;16.70;99.90
17565;DHT22;62994;52.126;5.596;2023-05-10T10:06:29;16.80;99.90
17565;DHT22;62994;52.126;5.596;2023-05-10T10:09:05;16.90;99.90
17565;DHT22;62994;52.126;5.596;2023-05-10T10:11:52;17.00;99.90
17565;DHT22;62994;52.126;5.596;2023-05-10T10:14:34;17.10;99.90
17565;DHT22;62994;52.126;5.596;2023-05-10T10:17:40;17.20;99.90
17565;DHT22;62994;52.126;5.596;2023-05-10T10:20:17;17.30;99.90
17565;DHT22;62994;52.126;5.596;2023-05-10T10:23:18;17.40;99.90
17565;DHT22;62994;52.126;5.596;2023-05-10T10:26:05;17.50;99.90
17565;DHT22;62994;52.126;5.596;2023-05-10T10:29:00;17.60;99.90
17565;DHT22;62994;52.126;5.596;2023-05-10T10:32:01;17.60;99.90
17565;DHT22;62994;52.126;5.596;2023-05-10T10:34:41;17.60;99.90
17565;DHT22;62994;52.126;5.596;2023-05-10T10:37:24;17.70;99.90
17565;DHT22;62994;52.126;5.596;2023-05-10T10:40:26;17.80;99.90
17565;DHT22;62994;52.126;5.596;2023-05-10T10:43:20;17.90;99.90
17565;DHT22;62994;52.126;5.596;2023-05-10T10:46:14;17.90;99.90
17565;DHT22;62994;52.126;5.596;2023-05-10T10:49:09;18.00;99.90
17565;DHT22;62994;52.126;5.596;2023-05-10T10:52:18;18.10;99.90
17565;DHT22;62994;52.126;5.596;2023-05-10T10:55:09;18.10;99.90
17565;DHT22;62994;52.126;5.596;2023-05-10T10:57:47;18.10;99.90
17565;DHT22;62994;52.126;5.596;2023-05-10T11:00:30;18.10;99.90
17565;DHT22;62994;52.126;5.596;2023-05-10T11:03:10;18.10;99.90
17565;DHT22;62994;52.126;5.596;2023-05-10T11:05:45;18.10;99.90
17565;DHT22;62994;52.126;5.596;2023-05-10T11:08:18;18.10;99.90
17565;DHT22;62994;52.126;5.596;2023-05-10T11:11:14;18.20;99.90
17565;DHT22;62994;52.126;5.596;2023-05-10T11:14:03;18.10;99.90
17565;DHT22;62994;52.126;5.596;2023-05-10T11:16:48;18.20;99.90
17565;DHT22;62994;52.126;5.596;2023-05-10T11:19:22;18.30;99.90
17565;DHT22;62994;52.126;5.596;2023-05-10T11:22:14;18.30;99.90
17565;DHT22;62994;52.126;5.596;2023-05-10T11:24:58;18.20;99.90
17565;DHT22;62994;52.126;5.596;2023-05-10T11:27:37;18.30;99.90
17565;DHT22;62994;52.126;5.596;2023-05-10T11:30:11;18.30;99.90
17565;DHT22;62994;52.126;5.596;2023-05-10T11:32:42;18.30;99.90
17565;DHT22;62994;52.126;5.596;2023-05-10T11:35:16;18.40;99.90
17565;DHT22;62994;52.126;5.596;2023-05-10T11:37:53;18.50;99.90
17565;DHT22;62994;52.126;5.596;2023-05-10T11:40:43;18.60;99.90
17565;DHT22;62994;52.126;5.596;2023-05-10T11:43:25;18.60;99.90
17565;DHT22;62994;52.126;5.596;2023-05-10T11:45:56;18.70;99.90
17565;DHT22;62994;52.126;5.596;2023-05-10T11:48:32;18.80;99.90
17565;DHT22;62994;52.126;5.596;2023-05-10T11:51:12;18.80;99.90
17565;DHT22;62994;52.126;5.596;2023-05-10T11:53:45;18.90;99.90
17565;DHT22;62994;52.126;5.596;2023-05-10T11:56:48;18.90;99.90
17565;DHT22;62994;52.126;5.596;2023-05-10T11:59:20;19.00;99.90
17565;DHT22;62994;52.126;5.596;2023-05-10T12:01:53;18.90;99.90
17565;DHT22;62994;52.126;5.596;2023-05-10T12:04:34;19.00;99.90
17565;DHT22;62994;52.126;5.596;2023-05-10T12:07:05;19.00;99.90
17565;DHT22;62994;52.126;5.596;2023-05-10T12:10:04;19.00;99.90
17565;DHT22;62994;52.126;5.596;2023-05-10T12:12:57;19.10;99.90
17565;DHT22;62994;52.126;5.596;2023-05-10T12:15:29;19.10;99.90
17565;DHT22;62994;52.126;5.596;2023-05-10T12:17:57;19.10;99.90
17565;DHT22;62994;52.126;5.596;2023-05-10T12:20:31;19.20;99.90
17565;DHT22;62994;52.126;5.596;2023-05-10T12:23:02;19.20;99.90
17565;DHT22;62994;52.126;5.596;2023-05-10T12:25:35;19.40;99.90
17565;DHT22;62994;52.126;5.596;2023-05-10T12:28:13;19.40;99.90
17565;DHT22;62994;52.126;5.596;2023-05-10T12:30:53;19.50;99.90
17565;DHT22;62994;52.126;5.596;2023-05-10T12:33:35;19.50;99.90
17565;DHT22;62994;52.126;5.596;2023-05-10T12:36:23;19.60;99.90
17565;DHT22;62994;52.126;5.596;2023-05-10T12:39:02;19.60;99.90
17565;DHT22;62994;52.126;5.596;2023-05-10T12:41:38;19.70;99.90
17565;DHT22;62994;52.126;5.596;2023-05-10T12:44:32;19.80;99.90
17565;DHT22;62994;52.126;5.596;2023-05-10T12:47:13;19.90;99.90
17565;DHT22;62994;52.126;5.596;2023-05-10T12:49:50;20.00;99.90
17565;DHT22;62994;52.126;5.596;2023-05-10T12:52:24;20.00;99.90
17565;DHT22;62994;52.126;5.596;2023-05-10T12:54:53;20.10;99.90
17565;DHT22;62994;52.126;5.596;2023-05-10T12:57:32;20.20;99.90
17565;DHT22;62994;52.126;5.596;2023-05-10T13:00:10;20.30;99.90
17565;DHT22;62994;52.126;5.596;2023-05-10T13:02:45;20.40;99.90
17565;DHT22;62994;52.126;5.596;2023-05-10T13:05:16;20.40;99.90
17565;DHT22;62994;52.126;5.596;2023-05-10T13:07:51;20.60;99.90
17565;DHT22;62994;52.126;5.596;2023-05-10T13:10:29;20.70;99.90
17565;DHT22;62994;52.126;5.596;2023-05-10T13:13:03;20.70;99.90
17565;DHT22;62994;52.126;5.596;2023-05-10T13:15:38;20.80;99.90
17565;DHT22;62994;52.126;5.596;2023-05-10T13:18:16;20.90;99.90
17565;DHT22;62994;52.126;5.596;2023-05-10T13:20:59;20.90;99.90
17565;DHT22;62994;52.126;5.596;2023-05-10T13:26:32;21.10;99.90
17565;DHT22;62994;52.126;5.596;2023-05-10T13:29:11;21.20;99.90
17565;DHT22;62994;52.126;5.596;2023-05-10T13:31:51;21.20;99.90
17565;DHT22;62994;52.126;5.596;2023-05-10T13:34:21;21.20;99.90
17565;DHT22;62994;52.126;5.596;2023-05-10T13:36:48;21.20;99.90
17565;DHT22;62994;52.126;5.596;2023-05-10T13:39:16;21.10;99.90
17565;DHT22;62994;52.126;5.596;2023-05-10T13:41:50;21.10;99.90
17565;DHT22;62994;52.126;5.596;2023-05-10T13:44:21;21.10;99.90
17565;DHT22;62994;52.126;5.596;2023-05-10T13:47:02;21.00;99.90
17565;DHT22;62994;52.126;5.596;2023-05-10T13:49:43;20.90;99.90
17565;DHT22;62994;52.126;5.596;2023-05-10T13:52:10;20.70;99.90
17565;DHT22;62994;52.126;5.596;2023-05-10T13:54:42;20.50;99.90
17565;DHT22;62994;52.126;5.596;2023-05-10T13:57:12;20.30;99.90
17565;DHT22;62994;52.126;5.596;2023-05-10T14:00:07;20.10;99.90
17565;DHT22;62994;52.126;5.596;2023-05-10T14:02:37;19.90;99.90
17565;DHT22;62994;52.126;5.596;2023-05-10T14:05:09;19.60;99.90
17565;DHT22;62994;52.126;5.596;2023-05-10T14:07:38;19.40;99.90
17565;DHT22;62994;52.126;5.596;2023-05-10T14:10:15;19.20;99.90
17565;DHT22;62994;52.126;5.596;2023-05-10T14:12:56;19.10;99.90
17565;DHT22;62994;52.126;5.596;2023-05-10T14:15:30;19.00;99.90
17565;DHT22;62994;52.126;5.596;2023-05-10T14:17:58;18.90;99.90
17565;DHT22;62994;52.126;5.596;2023-05-10T14:20:25;18.80;99.90
17565;DHT22;62994;52.126;5.596;2023-05-10T14:22:57;18.70;99.90
17565;DHT22;62994;52.126;5.596;2023-05-10T14:25:27;18.60;99.90
17565;DHT22;62994;52.126;5.596;2023-05-10T14:27:57;18.40;99.90
17565;DHT22;62994;52.126;5.596;2023-05-10T14:30:31;18.40;99.90
17565;DHT22;62994;52.126;5.596;2023-05-10T14:33:04;18.40;99.90
17565;DHT22;62994;52.126;5.596;2023-05-10T14:35:38;18.30;99.90
17565;DHT22;62994;52.126;5.596;2023-05-10T14:38:16;18.30;99.90
17565;DHT22;62994;52.126;5.596;2023-05-10T14:40:44;18.20;99.90
17565;DHT22;62994;52.126;5.596;2023-05-10T14:43:17;18.30;99.90
17565;DHT22;62994;52.126;5.596;2023-05-10T14:45:51;18.40;99.90
17565;DHT22;62994;52.126;5.596;2023-05-10T14:48:30;18.30;99.90
17565;DHT22;62994;52.126;5.596;2023-05-10T14:50:57;18.30;99.90
17565;DHT22;62994;52.126;5.596;2023-05-10T14:53:50;18.20;99.90
17565;DHT22;62994;52.126;5.596;2023-05-10T14:56:22;18.20;99.90
17565;DHT22;62994;52.126;5.596;2023-05-10T14:58:50;18.10;99.90
17565;DHT22;62994;52.126;5.596;2023-05-10T15:01:22;18.10;99.90
17565;DHT22;62994;52.126;5.596;2023-05-10T15:03:51;18.00;99.90
17565;DHT22;62994;52.126;5.596;2023-05-10T15:06:33;18.00;99.90
17565;DHT22;62994;52.126;5.596;2023-05-10T15:09:04;18.00;99.90
17565;DHT22;62994;52.126;5.596;2023-05-10T15:11:33;18.00;99.90
17565;DHT22;62994;52.126;5.596;2023-05-10T15:14:13;17.90;99.90
17565;DHT22;62994;52.126;5.596;2023-05-10T15:16:46;17.90;99.90
17565;DHT22;62994;52.126;5.596;2023-05-10T15:19:29;17.90;99.90
17565;DHT22;62994;52.126;5.596;2023-05-10T15:22:03;17.90;99.90
17565;DHT22;62994;52.126;5.596;2023-05-10T15:24:34;17.90;99.90
17565;DHT22;62994;52.126;5.596;2023-05-10T15:27:10;17.90;99.90
17565;DHT22;62994;52.126;5.596;2023-05-10T15:29:40;17.90;99.90
17565;DHT22;62994;52.126;5.596;2023-05-10T15:32:14;17.80;99.90
17565;DHT22;62994;52.126;5.596;2023-05-10T15:34:47;17.80;99.90
17565;DHT22;62994;52.126;5.596;2023-05-10T15:37:18;17.90;99.90
17565;DHT22;62994;52.126;5.596;2023-05-10T15:39:50;17.80;99.90
17565;DHT22;62994;52.126;5.596;2023-05-10T15:42:33;17.80;99.90
17565;DHT22;62994;52.126;5.596;2023-05-10T15:45:09;17.80;99.90
17565;DHT22;62994;52.126;5.596;2023-05-10T15:47:46;17.80;99.90
17565;DHT22;62994;52.126;5.596;2023-05-10T15:50:18;17.80;99.90
17565;DHT22;62994;52.126;5.596;2023-05-10T15:52:50;17.90;99.90
17565;DHT22;62994;52.126;5.596;2023-05-10T15:55:25;17.90;99.90
17565;DHT22;62994;52.126;5.596;2023-05-10T15:57:52;17.90;99.90
17565;DHT22;62994;52.126;5.596;2023-05-10T16:00:20;17.90;99.90
17565;DHT22;62994;52.126;5.596;2023-05-10T16:02:57;17.90;99.90
17565;DHT22;62994;52.126;5.596;2023-05-10T16:05:24;18.00;99.90
17565;DHT22;62994;52.126;5.596;2023-05-10T16:08:05;18.00;99.90
17565;DHT22;62994;52.126;5.596;2023-05-10T16:10:40;18.00;99.90
17565;DHT22;62994;52.126;5.596;2023-05-10T16:13:13;18.10;99.90
17565;DHT22;62994;52.126;5.596;2023-05-10T16:15:42;18.10;99.90
17565;DHT22;62994;52.126;5.596;2023-05-10T16:18:33;18.10;99.90
17565;DHT22;62994;52.126;5.596;2023-05-10T16:21:06;18.10;99.90
17565;DHT22;62994;52.126;5.596;2023-05-10T16:23:41;18.10;99.90
17565;DHT22;62994;52.126;5.596;2023-05-10T16:26:11;18.20;99.90
17565;DHT22;62994;52.126;5.596;2023-05-10T16:28:47;18.20;99.90
17565;DHT22;62994;52.126;5.596;2023-05-10T16:31:33;18.30;99.90
17565;DHT22;62994;52.126;5.596;2023-05-10T16:34:05;18.30;99.90
17565;DHT22;62994;52.126;5.596;2023-05-10T16:36:57;18.30;99.90
17565;DHT22;62994;52.126;5.596;2023-05-10T16:39:26;18.40;99.90